createdAt,value
2018-03-07T00:00:41.983Z,18.00
2018-03-07T00:03:08.495Z,17.50
2018-03-07T00:05:34.866Z,17.60
2018-03-07T00:08:01.236Z,17.30
2018-03-07T00:10:27.785Z,17.60
2018-03-07T00:12:54.153Z,17.30
2018-03-07T00:15:21.253Z,17.30
2018-03-07T00:17:47.819Z,17.30
2018-03-07T00:20:15.078Z,17.60
2018-03-07T00:22:41.465Z,17.20
2018-03-07T00:25:08.053Z,17.60
2018-03-07T00:27:35.006Z,17.20
2018-03-07T00:30:01.371Z,17.30
2018-03-07T00:32:28.465Z,17.20
2018-03-07T00:34:55.036Z,17.40
2018-03-07T00:37:21.990Z,17.30
2018-03-07T00:39:48.829Z,17.10
2018-03-07T00:42:15.449Z,17.10
2018-03-07T00:44:41.948Z,17.20
2018-03-07T00:47:08.368Z,17.40
2018-03-07T00:49:34.736Z,17.50
2018-03-07T00:52:02.061Z,17.20
2018-03-07T00:54:28.431Z,17.10
2018-03-07T00:56:56.048Z,17.10
2018-03-07T00:59:22.601Z,17.40
2018-03-07T01:01:49.785Z,17.10
2018-03-07T01:04:16.888Z,17.10
2018-03-07T01:06:43.351Z,17.10
2018-03-07T01:09:09.713Z,17.20
2018-03-07T01:11:36.806Z,17.10
2018-03-07T01:14:03.328Z,17.10
2018-03-07T01:16:29.860Z,17.10
2018-03-07T01:18:57.298Z,17.30
2018-03-07T01:21:24.037Z,17.00
2018-03-07T01:23:50.408Z,16.90
2018-03-07T01:26:17.515Z,17.30
2018-03-07T01:28:44.008Z,16.70
2018-03-07T01:31:10.369Z,17.00
2018-03-07T01:33:36.736Z,17.00
2018-03-07T01:36:03.251Z,16.70
2018-03-07T01:38:29.618Z,16.70
2018-03-07T01:40:56.560Z,16.80
2018-03-07T01:43:22.915Z,16.70
2018-03-07T01:45:50.256Z,16.90
2018-03-07T01:48:16.632Z,16.60
2018-03-07T01:50:43.744Z,16.60
2018-03-07T01:53:10.283Z,16.90
2018-03-07T01:55:36.657Z,16.70
2018-03-07T01:58:03.807Z,16.60
2018-03-07T02:00:30.427Z,16.70
2018-03-07T02:02:56.783Z,16.60
2018-03-07T02:05:23.235Z,16.60
2018-03-07T02:07:50.688Z,16.70
2018-03-07T02:10:17.044Z,16.60
2018-03-07T02:12:43.408Z,16.70
2018-03-07T02:15:09.895Z,16.60
2018-03-07T02:17:36.260Z,16.80
2018-03-07T02:20:02.638Z,16.60
2018-03-07T02:22:29.117Z,16.80
2018-03-07T02:24:56.212Z,16.60
2018-03-07T02:27:22.596Z,16.60
2018-03-07T02:29:49.104Z,16.60
2018-03-07T02:32:15.922Z,16.60
2018-03-07T02:34:42.641Z,16.70
2018-03-07T02:37:09.983Z,16.60
2018-03-07T02:39:36.364Z,16.70
2018-03-07T02:42:02.738Z,16.60
2018-03-07T02:44:29.445Z,16.60
2018-03-07T02:46:55.835Z,16.60
2018-03-07T02:49:22.792Z,16.60
2018-03-07T02:51:49.545Z,16.60
2018-03-07T02:54:16.396Z,16.60
2018-03-07T02:56:43.028Z,16.60
2018-03-07T02:59:09.729Z,16.50
2018-03-07T03:01:36.104Z,16.60
2018-03-07T03:04:02.525Z,16.60
2018-03-07T03:06:29.088Z,16.80
2018-03-07T03:08:55.577Z,16.60
2018-03-07T03:11:21.978Z,16.80
2018-03-07T03:13:48.488Z,16.60
2018-03-07T03:16:14.867Z,16.80
2018-03-07T03:18:42.323Z,16.80
2018-03-07T03:21:09.133Z,16.60
2018-03-07T03:23:35.500Z,16.80
2018-03-07T03:26:01.864Z,16.90
2018-03-07T03:28:28.463Z,16.40
2018-03-07T03:30:54.818Z,16.60
2018-03-07T03:33:21.640Z,16.50
2018-03-07T03:35:48.018Z,16.40
2018-03-07T03:38:15.111Z,16.60
2018-03-07T03:40:41.776Z,16.60
2018-03-07T03:43:08.520Z,16.10
2018-03-07T03:45:34.964Z,16.80
2018-03-07T03:48:01.517Z,16.10
2018-03-07T03:50:27.868Z,16.40
2018-03-07T03:52:54.968Z,16.10
2018-03-07T03:55:21.541Z,16.40
2018-03-07T03:57:47.935Z,16.20
2018-03-07T04:00:14.440Z,16.10
2018-03-07T04:02:42.228Z,16.10
2018-03-07T04:05:09.327Z,16.50
2018-03-07T04:07:35.937Z,16.20
2018-03-07T04:10:02.517Z,16.20
2018-03-07T04:12:29.092Z,16.30
2018-03-07T04:14:56.197Z,16.30
2018-03-07T04:17:22.697Z,16.40
2018-03-07T04:19:50.153Z,16.30
2018-03-07T04:22:17.676Z,16.40
2018-03-07T04:24:44.046Z,16.00
2018-03-07T04:27:10.399Z,16.20
2018-03-07T04:29:37.631Z,16.00
2018-03-07T04:32:04.012Z,16.10
2018-03-07T04:34:30.374Z,16.30
2018-03-07T04:36:56.924Z,16.20
2018-03-07T04:39:23.282Z,16.10
2018-03-07T04:41:50.195Z,16.40
2018-03-07T04:44:16.949Z,16.10
2018-03-07T04:46:43.295Z,16.00
2018-03-07T04:49:09.670Z,16.10
2018-03-07T04:51:36.900Z,16.10
2018-03-07T04:54:03.267Z,16.00
2018-03-07T04:56:30.365Z,16.60
2018-03-07T04:58:57.018Z,16.80
2018-03-07T05:01:23.382Z,17.20
2018-03-07T05:03:49.756Z,18.00
2018-03-07T05:06:17.356Z,18.70
2018-03-07T05:08:43.928Z,18.70
2018-03-07T05:11:10.298Z,19.00
2018-03-07T05:13:36.776Z,19.30
2018-03-07T05:16:03.160Z,20.10
2018-03-07T05:18:30.251Z,20.70
2018-03-07T05:20:56.803Z,20.80
2018-03-07T05:23:23.173Z,20.90
2018-03-07T05:25:50.660Z,21.00
2018-03-07T05:28:17.971Z,21.00
2018-03-07T05:30:44.822Z,21.10
2018-03-07T05:33:11.204Z,21.10
2018-03-07T05:35:37.579Z,21.10
2018-03-07T05:38:04.140Z,21.10
2018-03-07T05:40:30.517Z,21.40
2018-03-07T05:42:57.341Z,21.00
2018-03-07T05:45:23.798Z,21.10
2018-03-07T05:47:50.348Z,20.90
2018-03-07T05:50:17.130Z,21.00
2018-03-07T05:52:43.788Z,20.90
2018-03-07T05:55:10.144Z,20.90
2018-03-07T05:57:36.692Z,20.80
2018-03-07T06:00:03.272Z,20.60
2018-03-07T06:02:30.797Z,20.10
2018-03-07T06:04:57.680Z,20.20
2018-03-07T06:07:24.079Z,20.20
2018-03-07T06:09:50.481Z,20.20
2018-03-07T06:12:17.050Z,20.00
2018-03-07T06:14:43.400Z,20.00
2018-03-07T06:17:10.904Z,19.80
2018-03-07T06:19:37.588Z,19.80
2018-03-07T06:22:03.969Z,19.40
2018-03-07T06:24:30.344Z,19.40
2018-03-07T06:26:57.207Z,19.30
2018-03-07T06:29:23.576Z,19.30
2018-03-07T06:31:50.693Z,19.20
2018-03-07T06:34:17.232Z,18.80
2018-03-07T06:36:43.655Z,19.20
2018-03-07T06:39:09.999Z,19.20
2018-03-07T06:41:36.874Z,19.40
2018-03-07T06:44:03.864Z,19.30
2018-03-07T06:46:31.020Z,20.00
2018-03-07T06:48:57.607Z,19.70
2018-03-07T06:51:24.397Z,19.80
2018-03-07T06:53:51.492Z,20.10
2018-03-07T06:56:17.853Z,20.00
2018-03-07T06:58:44.400Z,20.30
2018-03-07T07:01:10.720Z,20.10
2018-03-07T07:03:37.175Z,20.10
2018-03-07T07:06:03.648Z,20.00
2018-03-07T07:08:31.215Z,19.90
2018-03-07T07:10:58.718Z,20.10
2018-03-07T07:13:25.096Z,19.90
2018-03-07T07:15:52.240Z,19.80
2018-03-07T07:18:19.067Z,19.80
2018-03-07T07:20:45.458Z,19.40
2018-03-07T07:23:12.290Z,19.90
2018-03-07T07:25:39.897Z,19.30
2018-03-07T07:28:06.369Z,19.30
2018-03-07T07:30:32.739Z,19.30
2018-03-07T07:33:00.066Z,19.30
2018-03-07T07:35:26.414Z,19.30
2018-03-07T07:37:52.768Z,19.20
2018-03-07T07:40:19.989Z,19.20
2018-03-07T07:42:46.361Z,18.80
2018-03-07T07:45:13.473Z,19.30
2018-03-07T07:47:40.479Z,19.30
2018-03-07T07:50:07.637Z,19.20
2018-03-07T07:52:34.215Z,19.20
2018-03-07T07:55:00.768Z,19.20
2018-03-07T07:57:27.355Z,19.40
2018-03-07T07:59:54.455Z,19.70
2018-03-07T08:02:21.556Z,19.40
2018-03-07T08:04:49.065Z,19.80
2018-03-07T08:07:15.581Z,19.80
2018-03-07T08:09:42.173Z,19.80
2018-03-07T08:12:08.634Z,19.80
2018-03-07T08:14:34.979Z,19.90
2018-03-07T08:17:02.621Z,19.80
2018-03-07T08:19:29.027Z,19.80
2018-03-07T08:21:55.404Z,19.90
2018-03-07T08:24:21.912Z,19.90
2018-03-07T08:26:48.710Z,19.80
2018-03-07T08:29:16.372Z,19.70
2018-03-07T08:31:43.486Z,19.70
2018-03-07T08:34:09.993Z,19.90
2018-03-07T08:36:36.759Z,19.90
2018-03-07T08:39:03.209Z,19.70
2018-03-07T08:41:29.960Z,19.40
2018-03-07T08:43:56.917Z,19.40
2018-03-07T08:46:23.286Z,19.30
2018-03-07T08:48:51.247Z,19.20
2018-03-07T08:51:17.676Z,19.30
2018-03-07T08:53:44.178Z,19.10
2018-03-07T08:56:10.740Z,19.20
2018-03-07T08:58:37.993Z,19.10
2018-03-07T09:01:05.252Z,19.10
2018-03-07T09:03:31.608Z,18.80
2018-03-07T09:05:58.473Z,19.00
2018-03-07T09:08:26.417Z,18.80
2018-03-07T09:10:53.368Z,18.50
2018-03-07T09:13:19.733Z,18.70
2018-03-07T09:15:46.835Z,18.60
2018-03-07T09:18:13.708Z,18.50
2018-03-07T09:20:40.479Z,18.60
2018-03-07T09:23:08.473Z,18.50
2018-03-07T09:25:36.303Z,18.50
2018-03-07T09:28:02.893Z,18.50
2018-03-07T09:30:29.723Z,18.40
2018-03-07T09:32:57.280Z,18.50
2018-03-07T09:35:25.162Z,18.60
2018-03-07T09:37:52.289Z,18.50
2018-03-07T09:40:19.144Z,18.60
2018-03-07T09:42:45.509Z,18.50
2018-03-07T09:45:13.066Z,18.60
2018-03-07T09:47:40.286Z,18.30
2018-03-07T09:50:08.182Z,18.00
2018-03-07T09:52:36.123Z,18.10
2018-03-07T09:55:02.896Z,18.00
2018-03-07T09:57:29.282Z,18.10
2018-03-07T09:59:55.656Z,17.50
2018-03-07T10:02:22.601Z,18.10
2018-03-07T10:04:50.465Z,18.00
2018-03-07T10:07:17.312Z,17.70
2018-03-07T10:09:43.680Z,17.80
2018-03-07T10:12:10.050Z,18.10
2018-03-07T10:14:36.619Z,18.00
2018-03-07T10:17:03.393Z,18.00
2018-03-07T10:19:32.124Z,18.10
2018-03-07T10:21:58.556Z,18.10
2018-03-07T10:24:25.757Z,18.00
2018-03-07T10:26:52.641Z,18.00
2018-03-07T10:29:19.410Z,18.00
2018-03-07T10:31:46.276Z,18.10
2018-03-07T10:34:12.628Z,17.90
2018-03-07T10:36:40.232Z,17.80
2018-03-07T10:39:07.304Z,18.10
2018-03-07T10:41:34.404Z,18.10
2018-03-07T10:44:01.576Z,18.10
2018-03-07T10:46:28.520Z,18.10
2018-03-07T10:48:54.872Z,18.10
2018-03-07T10:51:21.906Z,18.00
2018-03-07T10:53:49.207Z,18.10
2018-03-07T10:56:16.729Z,18.00
2018-03-07T10:58:43.505Z,17.80
2018-03-07T11:01:10.257Z,18.10
2018-03-07T11:03:36.607Z,18.00
2018-03-07T11:06:04.329Z,18.10
2018-03-07T11:08:31.168Z,18.10
2018-03-07T11:10:58.334Z,17.80
2018-03-07T11:13:25.214Z,18.10
2018-03-07T11:15:51.563Z,18.10
2018-03-07T11:18:19.124Z,17.90
2018-03-07T11:20:46.648Z,18.10
2018-03-07T11:23:13.911Z,18.10
2018-03-07T11:25:41.019Z,18.10
2018-03-07T11:28:07.853Z,18.00
2018-03-07T11:30:34.956Z,18.00
2018-03-07T11:33:01.498Z,18.00
2018-03-07T11:35:27.873Z,18.10
2018-03-07T11:37:54.963Z,18.10
2018-03-07T11:40:21.697Z,17.80
2018-03-07T11:42:48.896Z,18.00
2018-03-07T11:45:15.333Z,18.10
2018-03-07T11:47:42.191Z,18.00
2018-03-07T11:50:08.582Z,18.10
2018-03-07T11:52:34.965Z,18.00
2018-03-07T11:55:01.449Z,17.70
2018-03-07T11:57:27.818Z,18.10
2018-03-07T11:59:54.174Z,18.00
2018-03-07T12:02:20.921Z,18.00
2018-03-07T12:04:47.321Z,18.10
2018-03-07T12:07:13.701Z,17.90
2018-03-07T12:09:42.124Z,18.00
2018-03-07T12:12:08.773Z,18.00
2018-03-07T12:14:35.138Z,17.90
2018-03-07T12:17:02.021Z,17.70
2018-03-07T12:19:28.376Z,18.10
2018-03-07T12:21:55.505Z,17.90
2018-03-07T12:24:22.149Z,18.00
2018-03-07T12:26:49.088Z,17.80
2018-03-07T12:29:15.861Z,18.10
2018-03-07T12:31:42.713Z,18.50
2018-03-07T12:34:09.736Z,18.60
2018-03-07T12:36:36.722Z,19.10
2018-03-07T12:39:04.264Z,19.80
2018-03-07T12:41:30.622Z,19.80
2018-03-07T12:43:58.265Z,20.60
2018-03-07T12:46:25.505Z,20.60
2018-03-07T12:48:52.768Z,20.80
2018-03-07T12:51:19.745Z,20.90
2018-03-07T12:53:46.600Z,20.80
2018-03-07T12:56:14.064Z,21.50
2018-03-07T12:58:41.578Z,21.50
2018-03-07T13:01:08.456Z,21.60
2018-03-07T13:03:35.904Z,21.00
2018-03-07T13:06:02.655Z,21.20
2018-03-07T13:08:29.422Z,21.50
2018-03-07T13:10:55.818Z,21.60
2018-03-07T13:13:22.205Z,21.50
2018-03-07T13:15:49.528Z,21.40
2018-03-07T13:18:16.690Z,21.20
2018-03-07T13:20:43.088Z,21.60
2018-03-07T13:23:09.469Z,21.50
2018-03-07T13:25:35.954Z,21.30
2018-03-07T13:28:02.365Z,21.00
2018-03-07T13:30:29.532Z,20.90
2018-03-07T13:32:56.069Z,21.00
2018-03-07T13:35:22.509Z,20.90
2018-03-07T13:37:49.382Z,20.90
2018-03-07T13:40:16.883Z,20.70
2018-03-07T13:42:43.293Z,20.90
2018-03-07T13:45:09.685Z,20.80
2018-03-07T13:47:36.192Z,20.90
2018-03-07T13:50:02.626Z,20.90
2018-03-07T13:52:29.005Z,20.80
2018-03-07T13:54:55.492Z,20.20
2018-03-07T13:57:21.871Z,20.20
2018-03-07T13:59:48.235Z,20.10
2018-03-07T14:02:15.513Z,20.00
2018-03-07T14:04:41.892Z,20.00
2018-03-07T14:07:08.300Z,20.10
2018-03-07T14:09:34.877Z,20.00
2018-03-07T14:12:01.260Z,20.00
2018-03-07T14:14:27.636Z,19.90
2018-03-07T14:16:54.394Z,19.90
2018-03-07T14:19:20.767Z,20.10
2018-03-07T14:21:47.884Z,20.00
2018-03-07T14:24:14.392Z,19.90
2018-03-07T14:26:40.793Z,20.20
2018-03-07T14:29:08.645Z,20.20
2018-03-07T14:31:36.074Z,19.90
2018-03-07T14:34:02.844Z,20.10
2018-03-07T14:36:29.512Z,20.10
2018-03-07T14:38:56.721Z,20.00
2018-03-07T14:41:23.097Z,20.10
2018-03-07T14:43:49.740Z,20.10
2018-03-07T14:46:16.595Z,19.90
2018-03-07T14:48:43.705Z,19.90
2018-03-07T14:51:17.742Z,20.20
2018-03-07T14:53:44.130Z,20.00
2018-03-07T14:56:10.509Z,20.00
2018-03-07T14:58:37.020Z,20.00
2018-03-07T15:01:03.404Z,19.90
2018-03-07T15:03:29.825Z,20.30
2018-03-07T15:05:56.600Z,20.00
2018-03-07T15:08:23.744Z,20.20
2018-03-07T15:10:50.454Z,20.20
2018-03-07T15:13:17.146Z,20.00
2018-03-07T15:15:43.538Z,19.90
2018-03-07T15:18:10.382Z,20.00
2018-03-07T15:20:37.260Z,19.90
2018-03-07T15:23:03.623Z,19.90
2018-03-07T15:25:30.729Z,19.80
2018-03-07T15:27:57.215Z,20.10
2018-03-07T15:30:23.593Z,20.00
2018-03-07T15:32:49.983Z,20.00
2018-03-07T15:35:17.209Z,20.00
2018-03-07T15:37:43.576Z,19.80
2018-03-07T15:40:10.687Z,19.30
2018-03-07T15:42:37.251Z,19.30
2018-03-07T15:45:03.656Z,19.30
2018-03-07T15:47:31.010Z,19.30
2018-03-07T15:49:57.581Z,19.30
2018-03-07T15:52:23.957Z,19.70
2018-03-07T15:54:51.080Z,19.90
2018-03-07T15:57:17.618Z,19.80
2018-03-07T15:59:43.988Z,19.90
2018-03-07T16:02:11.111Z,20.60
2018-03-07T16:04:37.587Z,20.00
2018-03-07T16:07:04.742Z,20.60
2018-03-07T16:09:31.863Z,20.00
2018-03-07T16:11:58.416Z,20.00
2018-03-07T16:14:25.742Z,20.10
2018-03-07T16:16:52.134Z,20.00
2018-03-07T16:19:19.844Z,20.00
2018-03-07T16:21:46.605Z,20.00
2018-03-07T16:24:13.390Z,20.00
2018-03-07T16:26:40.632Z,20.00
2018-03-07T16:29:07.661Z,20.00
2018-03-07T16:31:34.488Z,19.90
2018-03-07T16:34:00.879Z,19.80
2018-03-07T16:36:28.522Z,19.90
2018-03-07T16:38:54.890Z,19.90
2018-03-07T16:41:22.002Z,19.90
2018-03-07T16:43:48.536Z,20.10
2018-03-07T16:46:14.905Z,19.80
2018-03-07T16:48:41.688Z,20.00
2018-03-07T16:51:08.270Z,19.80
2018-03-07T16:53:34.643Z,19.70
2018-03-07T16:56:01.799Z,19.20
2018-03-07T16:58:28.400Z,19.50
2018-03-07T17:00:54.781Z,19.40
2018-03-07T17:03:21.932Z,19.20
2018-03-07T17:05:49.138Z,19.20
2018-03-07T17:08:15.502Z,19.30
2018-03-07T17:10:41.883Z,20.00
2018-03-07T17:13:08.469Z,19.80
2018-03-07T17:15:34.848Z,19.80
2018-03-07T17:18:02.422Z,20.20
2018-03-07T17:20:29.526Z,20.70
2018-03-07T17:22:55.901Z,20.00
2018-03-07T17:25:23.221Z,20.50
2018-03-07T17:27:49.615Z,20.60
2018-03-07T17:30:16.013Z,20.60
2018-03-07T17:32:42.512Z,20.60
2018-03-07T17:35:08.912Z,20.10
2018-03-07T17:37:36.020Z,20.00
2018-03-07T17:40:02.872Z,20.10
2018-03-07T17:42:29.248Z,20.20
2018-03-07T17:44:56.357Z,20.60
2018-03-07T17:47:22.910Z,19.90
2018-03-07T17:49:49.315Z,20.10
2018-03-07T17:52:15.720Z,20.00
2018-03-07T17:54:43.040Z,20.20
2018-03-07T17:57:09.465Z,20.00
2018-03-07T17:59:36.462Z,19.90
2018-03-07T18:02:03.162Z,19.90
2018-03-07T18:04:30.031Z,19.80
2018-03-07T18:06:56.407Z,19.90
2018-03-07T18:09:23.509Z,19.80
2018-03-07T18:11:50.061Z,19.90
2018-03-07T18:14:16.432Z,20.00
2018-03-07T18:16:43.551Z,19.70
2018-03-07T18:19:10.404Z,20.00
2018-03-07T18:21:36.780Z,20.00
2018-03-07T18:24:03.879Z,19.80
2018-03-07T18:26:30.413Z,19.70
2018-03-07T18:28:56.810Z,19.40
2018-03-07T18:31:24.405Z,19.80
2018-03-07T18:33:50.956Z,19.40
2018-03-07T18:36:17.368Z,19.80
2018-03-07T18:38:43.881Z,19.20
2018-03-07T18:41:10.796Z,19.40
2018-03-07T18:43:37.629Z,19.30
2018-03-07T18:46:04.539Z,19.80
2018-03-07T18:48:32.283Z,19.30
2018-03-07T18:50:59.525Z,19.40
2018-03-07T18:53:26.107Z,19.30
2018-03-07T18:55:53.258Z,19.20
2018-03-07T18:58:20.581Z,19.30
2018-03-07T19:00:47.107Z,19.40
2018-03-07T19:03:13.865Z,19.30
2018-03-07T19:05:40.835Z,19.20
2018-03-07T19:08:07.291Z,19.30
2018-03-07T19:10:33.759Z,19.20
2018-03-07T19:13:00.350Z,19.30
2018-03-07T19:15:26.763Z,19.90
2018-03-07T19:17:53.156Z,20.00
2018-03-07T19:20:19.724Z,20.60
2018-03-07T19:22:46.624Z,20.60
2018-03-07T19:25:13.244Z,20.80
2018-03-07T19:27:40.181Z,21.00
2018-03-07T19:30:07.017Z,21.00
2018-03-07T19:32:34.410Z,21.10
2018-03-07T19:35:01.289Z,21.00
2018-03-07T19:37:28.509Z,21.00
2018-03-07T19:39:55.705Z,20.90
2018-03-07T19:42:22.948Z,20.90
2018-03-07T19:44:49.354Z,20.90
2018-03-07T19:47:16.040Z,20.90
2018-03-07T19:49:42.810Z,20.80
2018-03-07T19:52:09.755Z,20.70
2018-03-07T19:54:36.770Z,20.30
2018-03-07T19:57:03.807Z,20.70
2018-03-07T19:59:30.624Z,20.20
2018-03-07T20:01:57.932Z,20.80
2018-03-07T20:04:25.613Z,20.10
2018-03-07T20:06:51.968Z,20.30
2018-03-07T20:09:18.793Z,20.20
2018-03-07T20:11:45.712Z,20.00
2018-03-07T20:14:12.515Z,20.20
2018-03-07T20:16:39.632Z,19.90
2018-03-07T20:19:06.621Z,19.90
2018-03-07T20:21:33.032Z,20.10
2018-03-07T20:23:59.596Z,19.80
2018-03-07T20:26:26.325Z,19.90
2018-03-07T20:28:54.189Z,19.80
2018-03-07T20:31:22.001Z,19.80
2018-03-07T20:33:48.973Z,19.50
2018-03-07T20:36:15.797Z,19.70
2018-03-07T20:38:42.182Z,19.50
2018-03-07T20:41:08.758Z,19.40
2018-03-07T20:43:35.135Z,19.50
2018-03-07T20:46:01.523Z,19.30
2018-03-07T20:48:28.791Z,19.40
2018-03-07T20:50:55.901Z,19.30
2018-03-07T20:53:22.309Z,19.30
2018-03-07T20:55:48.973Z,19.30
2018-03-07T20:58:15.359Z,19.20
2018-03-07T21:00:42.519Z,19.30
2018-03-07T21:03:09.819Z,19.30
2018-03-07T21:05:36.541Z,19.20
2018-03-07T21:08:03.391Z,19.20
2018-03-07T21:10:29.800Z,19.30
2018-03-07T21:12:56.947Z,19.20
2018-03-07T21:15:23.459Z,19.20
2018-03-07T21:17:50.049Z,19.30
2018-03-07T21:20:17.180Z,19.20
2018-03-07T21:22:43.664Z,19.20
2018-03-07T21:25:10.098Z,19.20
2018-03-07T21:27:36.845Z,18.70
2018-03-07T21:30:03.825Z,19.20
2018-03-07T21:32:30.596Z,18.90
2018-03-07T21:34:57.343Z,18.60
2018-03-07T21:37:24.274Z,18.60
2018-03-07T21:39:51.091Z,18.70
2018-03-07T21:42:17.500Z,18.70
2018-03-07T21:44:44.347Z,18.70
2018-03-07T21:47:10.789Z,18.50
2018-03-07T21:49:37.910Z,18.60
2018-03-07T21:52:04.441Z,18.50
2018-03-07T21:54:30.839Z,18.60
2018-03-07T21:56:57.238Z,18.50
2018-03-07T21:59:23.731Z,18.70
2018-03-07T22:01:50.241Z,18.60
2018-03-07T22:04:17.361Z,18.60
2018-03-07T22:06:43.901Z,18.60
2018-03-07T22:09:10.796Z,18.50
2018-03-07T22:11:37.153Z,18.60
2018-03-07T22:14:03.883Z,18.60
2018-03-07T22:16:30.839Z,18.50
2018-03-07T22:18:58.242Z,18.50
2018-03-07T22:21:25.388Z,18.40
2018-03-07T22:23:52.133Z,18.60
2018-03-07T22:26:19.209Z,18.50
2018-03-07T22:28:45.884Z,18.50
2018-03-07T22:31:12.637Z,18.20
2018-03-07T22:33:39.649Z,18.50
2018-03-07T22:36:06.989Z,18.00
2018-03-07T22:38:33.361Z,17.90
2018-03-07T22:40:59.763Z,18.60
2018-03-07T22:43:26.307Z,17.90
2018-03-07T22:45:52.745Z,18.00
2018-03-07T22:48:19.106Z,18.10
2018-03-07T22:50:45.667Z,18.20
2018-03-07T22:53:12.801Z,18.00
2018-03-07T22:55:39.591Z,18.10
2018-03-07T22:58:06.577Z,18.00
2018-03-07T23:00:38.936Z,18.10
2018-03-07T23:03:05.308Z,17.90
2018-03-07T23:05:32.171Z,18.10
2018-03-07T23:07:59.307Z,17.90
2018-03-07T23:10:25.967Z,18.00
2018-03-07T23:12:53.201Z,18.00
2018-03-07T23:15:20.119Z,18.10
2018-03-07T23:17:46.893Z,18.10
2018-03-07T23:20:14.145Z,18.00
2018-03-07T23:22:41.400Z,17.70
2018-03-07T23:25:08.108Z,17.70
2018-03-07T23:27:35.309Z,18.00
2018-03-07T23:30:02.601Z,18.00
2018-03-07T23:32:30.149Z,17.90
2018-03-07T23:34:57.072Z,18.00
2018-03-07T23:37:23.440Z,17.90
2018-03-07T23:39:51.000Z,17.90
2018-03-07T23:42:17.920Z,17.90
2018-03-07T23:44:44.307Z,17.70
2018-03-07T23:47:11.998Z,17.20
2018-03-07T23:49:38.356Z,17.20
2018-03-07T23:52:05.308Z,17.20
2018-03-07T23:54:31.996Z,17.60
2018-03-07T23:56:59.106Z,17.30
2018-03-07T23:59:25.963Z,17.20
